Janet — 9HSL8 — position and weather

sailwx.info

Track history (hours):
 
Tides and Currents Weather Stations Pressure Air Temp Water Temp Dewpoint Dewpoint Depression Visibility Wind Speed Wind Dir Waves Ship Positions

Janet

Last reported at 2014-Sep-14 21:31 UTC. Time now 2014-Sep-19 17:55 UTC.
Position N 42°23' E 006°43'.

Length 90 m; draft 6.2 m.

Type: Cargo ship. MMSI: 256371000.

Date/timePositionNaut miles runAvg speedWind from/ knotsBaromVisibWave heightAir tempDewpointWater temp
2014-Sep-14 21:31N 42°23' E 006°43'11 8.7
2014-Sep-14 20:16N 42°28' E 006°31'18 8.9
2014-Sep-14 18:16N 42°38' E 006°11'7 8.8
2014-Sep-14 17:28N 42°42' E 006°03'8 8.4
2014-Sep-14 16:28N 42°47' E 005°53'8 8.4
2014-Sep-14 15:32N 42°51' E 005°45'10 8.4
2014-Sep-14 14:19N 42°57' E 005°33'24 8.5
2014-Sep-14 11:31N 43°10' E 005°06'8 8.2
2014-Sep-14 10:33N 43°16' E 004°60'8 8.3
2014-Sep-14 09:33N 43°24' E 004°55'2 2.2
2014-Sep-14 08:33N 43°26' E 004°53'0 0.0
2014-Sep-14 07:33N 43°26' E 004°53'0 0.0
2014-Sep-14 06:33N 43°26' E 004°53'0 0.0
2014-Sep-14 05:33N 43°26' E 004°53'0 0.0
2014-Sep-14 04:33N 43°26' E 004°53'0 0.0
2014-Sep-14 03:33N 43°26' E 004°53'0 0.0
2014-Sep-14 02:33N 43°26' E 004°53'0 0.0
2014-Sep-14 01:33N 43°26' E 004°53'0 0.0
2014-Sep-13 21:24N 43°26' E 004°53'0 0.0
2014-Sep-13 20:33N 43°26' E 004°53'0 0.0
2014-Sep-13 19:33N 43°26' E 004°53'0 0.0
2014-Sep-13 18:33N 43°26' E 004°53'0 0.0
2014-Sep-13 17:30N 43°26' E 004°53'0 0.0
2014-Sep-13 16:30N 43°26' E 004°53'0 0.0
2014-Sep-13 15:33N 43°26' E 004°53'0 0.0
2014-Sep-13 14:33N 43°26' E 004°53'0 0.0
2014-Sep-13 13:33N 43°26' E 004°53'0 0.0
2014-Sep-13 12:33N 43°26' E 004°53'0 0.0
2014-Sep-13 11:33N 43°26' E 004°53'0 0.0
2014-Sep-13 10:33N 43°26' E 004°53'0 0.0
2014-Sep-13 09:33N 43°26' E 004°53'0 0.0
2014-Sep-13 08:33N 43°26' E 004°53'6 6.4
2014-Sep-13 07:34N 43°21' E 004°59'9 8.4
2014-Sep-13 06:31N 43°12' E 005°02'2119.0
2014-Sep-13 05:24N 43°06' E 004°35'30 6.0
2014-Sep-13 00:25N 43°02' E 003°54'8 8.9
2014-Sep-12 23:28N 43°01' E 003°43'11 9.1
2014-Sep-12 22:16N 42°59' E 003°28'7 9.4
2014-Sep-12 21:30N 42°58' E 003°18'9 9.2
2014-Sep-12 20:32N 43°00' E 003°06'2 2.0
2014-Sep-12 19:18N 43°01' E 003°03'0 0.0
2014-Sep-12 17:19N 43°01' E 003°03'0 0.0
2014-Sep-12 16:30N 43°01' E 003°03'0 0.0
2014-Sep-12 15:31N 43°01' E 003°03'0 0.0
2014-Sep-12 13:25N 43°01' E 003°03'0 0.0
2014-Sep-12 12:19N 43°01' E 003°03'0 0.0
2014-Sep-12 11:30N 43°01' E 003°03'0 0.0
2014-Sep-11 18:29N 43°01' E 003°03'0 0.0
2014-Sep-11 17:30N 43°01' E 003°03'0 0.0
2014-Sep-11 14:30N 43°01' E 003°03'0 0.0
2014-Sep-11 13:19N 43°01' E 003°03'0 0.0
2014-Sep-11 12:33N 43°01' E 003°03'0 0.0
2014-Sep-11 11:11N 43°01' E 003°03'0 0.0
2014-Sep-11 10:33N 43°01' E 003°03'0 0.0
2014-Sep-11 09:30N 43°01' E 003°03'0 0.0
2014-Sep-11 08:22N 43°01' E 003°03'0 0.0
2014-Sep-11 05:30N 43°01' E 003°03'0 0.0
2014-Sep-11 04:33N 43°01' E 003°03'0 0.0
2014-Sep-11 03:31N 43°01' E 003°03'0 0.0
2014-Sep-11 02:31N 43°01' E 003°03'0 0.0
2014-Sep-11 01:31N 43°01' E 003°03'0 0.0
2014-Sep-11 00:30N 43°01' E 003°03'0 0.0
2014-Sep-10 20:14N 43°01' E 003°03'0 0.5
2014-Sep-10 19:32N 43°01' E 003°04'2 1.8
2014-Sep-10 18:21N 42°59' E 003°05'0 0.0
2014-Sep-10 17:18N 42°59' E 003°05'0 0.0
2014-Sep-10 16:10N 42°59' E 003°05'0 0.0
2014-Sep-10 10:21N 42°59' E 003°05'0 0.0
2014-Sep-09 10:16N 42°59' E 003°05'6 6.9
2014-Sep-09 09:23N 42°58' E 003°14'7 8.7
2014-Sep-09 08:32N 42°55' E 003°23'9 8.5
2014-Sep-09 07:28N 42°52' E 003°34'8 8.3
2014-Sep-09 06:31N 42°49' E 003°44'  
Track history (hours):
 
Tides and Currents Weather Stations Pressure Air Temp Water Temp Dewpoint Dewpoint Depression Visibility Wind Speed Wind Dir Waves Ship Positions

Janet

Last reported at 2014-Sep-14 21:31 UTC. Time now 2014-Sep-19 17:55 UTC.
Position N 42°23' E 006°43'.

Length 90 m; draft 6.2 m.

Type: Cargo ship. MMSI: 256371000.

Date/timePositionNaut miles runAvg speedWind from/ knotsBaromVisibWave heightAir tempDewpointWater temp
2014-Sep-14 21:31N 42°23' E 006°43'11 8.7
2014-Sep-14 20:16N 42°28' E 006°31'18 8.9
2014-Sep-14 18:16N 42°38' E 006°11'7 8.8
2014-Sep-14 17:28N 42°42' E 006°03'8 8.4
2014-Sep-14 16:28N 42°47' E 005°53'8 8.4
2014-Sep-14 15:32N 42°51' E 005°45'10 8.4
2014-Sep-14 14:19N 42°57' E 005°33'24 8.5
2014-Sep-14 11:31N 43°10' E 005°06'8 8.2
2014-Sep-14 10:33N 43°16' E 004°60'8 8.3
2014-Sep-14 09:33N 43°24' E 004°55'2 2.2
2014-Sep-14 08:33N 43°26' E 004°53'0 0.0
2014-Sep-14 07:33N 43°26' E 004°53'0 0.0
2014-Sep-14 06:33N 43°26' E 004°53'0 0.0
2014-Sep-14 05:33N 43°26' E 004°53'0 0.0
2014-Sep-14 04:33N 43°26' E 004°53'0 0.0
2014-Sep-14 03:33N 43°26' E 004°53'0 0.0
2014-Sep-14 02:33N 43°26' E 004°53'0 0.0
2014-Sep-14 01:33N 43°26' E 004°53'0 0.0
2014-Sep-13 21:24N 43°26' E 004°53'0 0.0
2014-Sep-13 20:33N 43°26' E 004°53'0 0.0
2014-Sep-13 19:33N 43°26' E 004°53'0 0.0
2014-Sep-13 18:33N 43°26' E 004°53'0 0.0
2014-Sep-13 17:30N 43°26' E 004°53'0 0.0
2014-Sep-13 16:30N 43°26' E 004°53'0 0.0
2014-Sep-13 15:33N 43°26' E 004°53'0 0.0
2014-Sep-13 14:33N 43°26' E 004°53'0 0.0
2014-Sep-13 13:33N 43°26' E 004°53'0 0.0
2014-Sep-13 12:33N 43°26' E 004°53'0 0.0
2014-Sep-13 11:33N 43°26' E 004°53'0 0.0
2014-Sep-13 10:33N 43°26' E 004°53'0 0.0
2014-Sep-13 09:33N 43°26' E 004°53'0 0.0
2014-Sep-13 08:33N 43°26' E 004°53'6 6.4
2014-Sep-13 07:34N 43°21' E 004°59'9 8.4
2014-Sep-13 06:31N 43°12' E 005°02'2119.0
2014-Sep-13 05:24N 43°06' E 004°35'30 6.0
2014-Sep-13 00:25N 43°02' E 003°54'8 8.9
2014-Sep-12 23:28N 43°01' E 003°43'11 9.1
2014-Sep-12 22:16N 42°59' E 003°28'7 9.4
2014-Sep-12 21:30N 42°58' E 003°18'9 9.2
2014-Sep-12 20:32N 43°00' E 003°06'2 2.0
2014-Sep-12 19:18N 43°01' E 003°03'0 0.0
2014-Sep-12 17:19N 43°01' E 003°03'0 0.0
2014-Sep-12 16:30N 43°01' E 003°03'0 0.0
2014-Sep-12 15:31N 43°01' E 003°03'0 0.0
2014-Sep-12 13:25N 43°01' E 003°03'0 0.0
2014-Sep-12 12:19N 43°01' E 003°03'0 0.0
2014-Sep-12 11:30N 43°01' E 003°03'0 0.0
2014-Sep-11 18:29N 43°01' E 003°03'0 0.0
2014-Sep-11 17:30N 43°01' E 003°03'0 0.0
2014-Sep-11 14:30N 43°01' E 003°03'0 0.0
2014-Sep-11 13:19N 43°01' E 003°03'0 0.0
2014-Sep-11 12:33N 43°01' E 003°03'0 0.0
2014-Sep-11 11:11N 43°01' E 003°03'0 0.0
2014-Sep-11 10:33N 43°01' E 003°03'0 0.0
2014-Sep-11 09:30N 43°01' E 003°03'0 0.0
2014-Sep-11 08:22N 43°01' E 003°03'0 0.0
2014-Sep-11 05:30N 43°01' E 003°03'0 0.0
2014-Sep-11 04:33N 43°01' E 003°03'0 0.0
2014-Sep-11 03:31N 43°01' E 003°03'0 0.0
2014-Sep-11 02:31N 43°01' E 003°03'0 0.0
2014-Sep-11 01:31N 43°01' E 003°03'0 0.0
2014-Sep-11 00:30N 43°01' E 003°03'0 0.0
2014-Sep-10 20:14N 43°01' E 003°03'0 0.5
2014-Sep-10 19:32N 43°01' E 003°04'2 1.8
2014-Sep-10 18:21N 42°59' E 003°05'0 0.0
2014-Sep-10 17:18N 42°59' E 003°05'0 0.0
2014-Sep-10 16:10N 42°59' E 003°05'0 0.0
2014-Sep-10 10:21N 42°59' E 003°05'0 0.0
2014-Sep-09 10:16N 42°59' E 003°05'6 6.9
2014-Sep-09 09:23N 42°58' E 003°14'7 8.7
2014-Sep-09 08:32N 42°55' E 003°23'9 8.5
2014-Sep-09 07:28N 42°52' E 003°34'8 8.3
2014-Sep-09 06:31N 42°49' E 003°44'  

Dump ship's entire track history